Latest Weather Observations for Hobart Airport

IDT60801

Issued at 12:02 pm EST Monday 29 August 2016 (issued every 30 minutes, with the page automatically refreshed every 10 minutes)

About weather observations | Map of weather stations | Latest weather observations for TAS | Other Formats
Station Details ID: 094008 Name: HOBART AIRPORT Lat: -42.83 Lon: 147.50 Height: 4.0 m
Data from the previous 72 hours. | See also: Recent months at Hobart Airport
Date/Time
EST
Temp
°C
App
Temp
°C
Dew
Point
°C
Rel
Hum
%
Delta-T
°C
Wind Press
QNH
hPa
Press
MSL
hPa
Rain since
9am
mm
Dir  Spd
km/h
Gust
km/h
Spd
kts
Gust
kts
29/11:30am 10.8 7.2 0.5 49 4.2 NNE 9 15 5 8 1024.1 1024.2 0.0
29/11:00am 10.0 6.1 1.0 53 3.7 WNW 11 17 6 9 1024.2 1024.3 0.0
29/10:30am 9.2 4.9 0.8 55 3.4 NW 13 19 7 10 1024.4 1024.5 0.0
29/10:00am 8.8 4.5 1.2 59 3.1 NNW 13 19 7 10 1024.7 1024.8 0.0
29/09:30am 7.4 3.1 0.8 63 2.6 NNW 13 17 7 9 1024.9 1025.0 0.0
29/09:00am 6.5 1.7 0.3 64 2.4 NNW 15 19 8 10 1024.9 1025.0 0.0
29/08:30am 5.4 1.0 0.5 71 1.9 NNW 13 20 7 11 1024.6 1024.7 0.0
29/08:00am 4.1 -0.7 0.4 77 1.4 NW 15 17 8 9 1024.4 1024.5 0.0
29/07:30am 3.3 -1.6 -0.5 76 1.4 NW 15 19 8 10 1024.2 1024.3 0.0
29/07:00am 2.8 -2.4 -0.2 81 1.1 NW 17 24 9 13 1023.9 1024.0 0.0
29/06:30am 2.4 -2.1 -0.6 80 1.1 NW 13 19 7 10 1023.6 1023.7 0.0
29/06:00am 2.7 -1.5 -0.6 79 1.2 NW 11 15 6 8 1023.4 1023.5 0.0
29/05:30am 2.8 -3.1 -0.5 79 1.2 NW 20 24 11 13 1023.1 1023.2 0.0
29/05:00am 2.7 -1.8 -0.3 81 1.1 NNW 13 17 7 9 1022.8 1022.9 0.0
29/04:30am 2.7 -1.4 -0.3 81 1.1 NW 11 13 6 7 1022.6 1022.7 0.0
29/04:00am 2.5 -0.9 -0.5 80 1.1 WNW 7 13 4 7 1022.5 1022.6 0.0
29/03:30am 3.1 -1.4 -0.2 79 1.2 WNW 13 17 7 9 1022.4 1022.5 0.0
29/03:00am 3.5 -1.0 -0.3 76 1.4 NW 13 15 7 8 1022.3 1022.4 0.0
29/02:30am 3.8 -0.3 -0.2 75 1.5 NW 11 13 6 7 1022.0 1022.1 0.0
29/02:00am 3.7 -0.7 0.5 79 1.2 NW 13 17 7 9 1021.8 1021.9 0.0
29/01:30am 4.7 0.3 0.2 72 1.7 NW 13 17 7 9 1021.8 1021.9 0.0
29/01:00am 4.7 -0.1 -0.1 71 1.8 NNW 15 20 8 11 1021.4 1021.5 0.0
29/12:30am 4.7 0.3 0.5 74 1.6 NW 13 15 7 8 1021.3 1021.4 0.0
29/12:00am 5.0 0.5 0.0 70 1.9 NW 13 17 7 9 1021.3 1021.4 0.0
 
Date/Time
EST
Temp
°C
App
Temp
°C
Dew
Point
°C
Rel
Hum
%
Delta-T
°C
Wind Press
QNH
hPa
Press
MSL
hPa
Rain since
9am
mm
Dir  Spd
km/h
Gust
km/h
Spd
kts
Gust
kts
28/11:30pm 6.0 1.2 0.3 67 2.2 NNW 15 17 8 9 1021.1 1021.2 0.0
28/11:00pm 6.0 1.9 -0.3 64 2.4 NW 11 15 6 8 1020.8 1020.9 0.0
28/10:30pm 4.0 -0.1 0.0 75 1.5 NNW 11 13 6 7 1020.9 1021.0 0.0
28/10:00pm 5.4 1.4 0.5 71 1.9 WNW 11 11 6 6 1020.7 1020.8 0.0
28/09:30pm 5.8 1.4 0.1 67 2.2 NW 13 17 7 9 1020.6 1020.7 0.0
28/09:00pm 6.2 2.2 0.6 67 2.2 NW 11 13 6 7 1020.2 1020.3 0.0
28/08:30pm 6.0 2.4 0.6 68 2.1 NNW 9 11 5 6 1019.9 1020.0 0.0
28/08:00pm 5.8 2.3 1.0 71 1.9 NNW 9 11 5 6 1019.5 1019.6 0.0
28/07:30pm 7.3 5.2 -1.1 55 3.2 CALM 0 2 0 1 1019.1 1019.2 0.0
28/07:00pm 6.8 3.0 -0.8 58 2.9 WNW 9 11 5 6 1018.8 1018.9 0.0
28/06:30pm 7.9 4.2 -0.3 56 3.2 WNW 9 11 5 6 1018.5 1018.6 0.0
28/06:00pm 8.1 4.3 -0.4 55 3.3 W 9 13 5 7 1018.1 1018.2 0.0
28/05:30pm 9.2 4.3 -0.4 51 3.8 WNW 15 22 8 12 1017.6 1017.7 0.0
28/05:00pm 10.5 5.2 -0.9 45 4.5 WNW 17 24 9 13 1017.2 1017.3 0.0
28/04:30pm 10.9 4.6 -1.0 43 4.7 NW 22 32 12 17 1016.9 1017.0 0.0
28/04:00pm 10.7 5.3 -1.6 42 4.8 WNW 17 28 9 15 1016.9 1017.0 0.0
28/03:30pm 11.0 5.5 -1.9 40 5.0 W 17 20 9 11 1016.7 1016.8 0.0
28/03:00pm 11.6 7.3 -1.3 40 5.1 W 11 17 6 9 1016.4 1016.5 0.0
28/02:30pm 10.8 7.0 -0.8 44 4.6 WSW 9 15 5 8 1016.4 1016.5 0.0
28/02:00pm 10.4 5.1 -0.7 46 4.4 W 17 28 9 15 1016.6 1016.7 0.0
28/01:30pm 10.9 5.2 -1.0 43 4.7 WNW 19 24 10 13 1016.7 1016.8 0.0
28/01:00pm 10.6 4.8 -1.8 42 4.8 NW 19 28 10 15 1016.7 1016.8 0.0
28/12:30pm 10.2 4.5 -3.6 37 5.1 W 17 26 9 14 1017.0 1017.1 0.0
28/12:00pm 11.0 4.7 -4.2 34 5.6 WSW 20 33 11 18 1017.0 1017.1 0.0
28/11:30am 10.3 4.0 -4.2 36 5.3 WNW 20 32 11 17 1017.0 1017.1 0.0
28/11:00am 9.4 2.5 -3.0 41 4.6 WSW 24 32 13 17 1017.0 1017.1 0.0
28/10:30am 9.2 2.9 -3.7 40 4.7 WSW 20 32 11 17 1016.9 1017.0 0.0
28/10:00am 8.9 1.6 -2.6 44 4.3 WSW 26 35 14 19 1016.6 1016.7 0.0
28/09:30am 9.3 2.8 -2.4 44 4.4 WSW 22 32 12 17 1016.1 1016.2 0.0
28/09:00am 8.4 2.4 -3.4 43 4.3 SW 19 26 10 14 1015.9 1015.9 0.2
28/08:30am 8.4 2.4 -3.0 44 4.2 W 19 24 10 13 1015.7 1015.7 0.2
28/08:00am 7.1 1.4 -0.7 57 3.0 SW 19 32 10 17 1015.5 1015.5 0.2
28/07:30am 7.0 2.1 -0.6 58 2.9 WSW 15 22 8 12 1015.1 1015.1 0.2
28/07:00am 5.8 1.4 0.1 67 2.2 SW 13 20 7 11 1014.4 1014.4 0.2
28/06:30am 6.4 1.2 0.2 64 2.4 WSW 17 26 9 14 1013.7 1013.7 0.2
28/06:00am 6.9 1.4 0.3 63 2.6 WSW 19 32 10 17 1013.2 1013.2 0.2
28/05:30am 6.3 0.7 1.0 69 2.1 SW 20 32 11 17 1012.5 1012.5 0.2
28/05:00am 6.7 1.7 1.2 68 2.2 SW 17 24 9 13 1011.7 1011.7 0.2
28/04:30am 7.0 2.0 1.6 68 2.2 SSW 17 26 9 14 1011.0 1011.0 0.2
28/04:00am 6.6 0.8 2.2 73 1.8 SSW 22 30 12 16 1010.6 1010.6 0.2
28/03:30am 7.0 -0.8 1.9 70 2.1 SW 32 48 17 26 1010.4 1010.4 0.2
28/03:22am 7.3 0.4 2.5 71 2.0 SW 28 48 15 26 1010.3 1010.3 0.2
28/03:00am 7.4 0.6 2.9 73 1.9 SSW 28 37 15 20 1009.9 1009.9 0.2
28/02:30am 7.6 1.1 2.9 72 2.0 SSW 26 44 14 24 1009.3 1009.3 0.2
28/02:04am 8.0 1.2 3.1 71 2.1 SW 28 48 15 26 1009.0 1009.0 0.2
28/02:00am 8.2 1.4 3.0 70 2.2 SSW 28 41 15 22 1008.9 1008.9 0.2
28/01:36am 8.8 2.6 4.5 74 1.9 SSW 26 50 14 27 1008.0 1008.0 0.2
28/01:30am 9.5 2.5 4.1 69 2.4 SW 30 43 16 23 1007.7 1007.7 0.2
28/01:20am 9.9 3.2 3.8 66 2.7 WSW 28 48 15 26 1007.2 1007.2 0.2
28/01:00am 9.9 4.3 5.3 73 2.1 W 24 32 13 17 1006.8 1006.8 0.2
28/12:40am 10.3 3.9 5.0 69 2.4 WNW 28 46 15 25 1006.1 1006.1 0.2
28/12:30am 10.2 3.8 5.4 72 2.2 WNW 28 39 15 21 1005.9 1005.9 0.2
28/12:00am 10.8 3.6 4.9 67 2.7 NW 32 44 17 24 1005.1 1005.1 0.2
 
Date/Time
EST
Temp
°C
App
Temp
°C
Dew
Point
°C
Rel
Hum
%
Delta-T
°C
Wind Press
QNH
hPa
Press
MSL
hPa
Rain since
9am
mm
Dir  Spd
km/h
Gust
km/h
Spd
kts
Gust
kts
27/11:59pm 10.8 4.0 4.9 67 2.7 NW 30 44 16 24 1005.0 1005.0 0.2
27/11:30pm 10.8 6.0 4.6 65 2.8 NW 19 26 10 14 1004.6 1004.6 0.0
27/11:00pm 11.7 6.3 2.2 52 4.1 NNW 20 32 11 17 1004.3 1004.3 0.0
27/10:30pm 11.3 6.8 2.3 54 3.9 N 15 26 8 14 1004.8 1004.8 0.0
27/10:00pm 11.7 5.9 2.5 53 4.0 NNW 22 35 12 19 1005.2 1005.2 0.0
27/09:30pm 11.7 5.8 1.6 50 4.3 NNW 22 35 12 19 1005.5 1005.5 0.0
27/09:00pm 10.9 5.2 2.6 56 3.6 NNW 22 32 12 17 1005.8 1005.8 0.0
27/08:30pm 11.3 5.1 2.3 54 3.9 NNW 24 43 13 23 1005.7 1005.7 0.0
27/08:00pm 11.1 3.9 2.8 56 3.6 NNW 30 44 16 24 1006.2 1006.2 0.0
27/07:40pm 11.7 4.4 2.2 52 4.1 NNW 30 50 16 27 1006.6 1006.6 0.0
27/07:30pm 11.7 4.4 2.2 52 4.1 NNW 30 44 16 24 1006.7 1006.7 0.0
27/07:00pm 11.5 5.4 2.8 55 3.8 NNW 24 33 13 18 1007.1 1007.1 0.0
27/06:30pm 11.8 5.8 3.2 55 3.8 NW 24 33 13 18 1007.7 1007.7 0.0
27/06:00pm 11.9 5.9 3.3 55 3.8 NNW 24 37 13 20 1007.7 1007.7 0.0
27/05:30pm 12.0 4.6 4.0 58 3.6 NW 32 48 17 26 1007.7 1007.7 0.0
27/05:00pm 12.4 4.0 3.7 55 3.9 NW 37 57 20 31 1007.3 1007.3 0.0
27/04:30pm 13.3 5.1 2.7 48 4.7 NW 35 46 19 25 1007.3 1007.3 0.0
27/04:00pm 13.6 5.4 2.8 48 4.8 NW 35 52 19 28 1007.3 1007.3 0.0
27/03:30pm 13.7 5.8 2.4 46 5.0 NW 33 50 18 27 1007.1 1007.1 0.0
27/03:00pm 13.7 5.6 3.0 48 4.8 NW 35 54 19 29 1007.2 1007.2 0.0
27/02:30pm 14.4 5.0 2.2 43 5.4 NW 41 56 22 30 1007.5 1007.5 0.0
27/02:09pm 14.8 6.1 2.2 42 5.6 NW 37 56 20 30 1007.5 1007.5 0.0
27/02:00pm 14.9 5.8 2.0 41 5.7 NW 39 54 21 29 1007.6 1007.6 0.0
27/01:33pm 14.2 6.4 2.8 46 5.1 NW 33 52 18 28 1008.1 1008.1 0.0
27/01:30pm 14.3 6.0 2.3 44 5.3 NW 35 44 19 24 1008.0 1008.0 0.0
27/01:00pm 14.1 5.4 2.3 45 5.2 NW 37 56 20 30 1008.5 1008.5 0.0
27/12:30pm 13.7 4.4 2.7 47 4.9 NW 41 56 22 30 1008.9 1008.9 0.0
27/12:22pm 13.5 5.1 3.5 51 4.5 NW 37 56 20 30 1009.1 1009.1 0.0
27/12:00pm 13.4 6.3 3.4 50 4.5 NW 30 41 16 22 1009.2 1009.2 0.0
27/11:30am 13.1 5.6 3.5 52 4.3 NW 32 50 17 27 1009.8 1009.8 0.0
27/11:00am 13.4 5.3 3.1 49 4.6 NW 35 48 19 26 1010.0 1010.0 0.0
27/10:30am 13.4 5.7 3.4 50 4.5 NW 33 41 18 22 1010.5 1010.5 0.0
27/10:00am 13.2 6.3 2.8 49 4.6 NW 28 39 15 21 1010.6 1010.6 0.0
27/09:30am 13.1 7.7 2.7 49 4.6 NNW 20 30 11 16 1011.0 1011.0 0.0
27/09:00am 12.5 7.5 3.6 54 4.0 NNW 19 30 10 16 1011.3 1011.3 0.2
27/08:30am 11.7 6.1 3.3 56 3.7 NNW 22 35 12 19 1011.5 1011.5 0.2
27/08:00am 11.1 4.3 3.1 58 3.5 NW 28 37 15 20 1011.5 1011.5 0.2
27/07:30am 10.1 3.6 2.9 61 3.1 NNW 26 33 14 18 1011.5 1011.5 0.2
27/07:00am 9.5 3.4 3.0 64 2.8 NNW 24 33 13 18 1011.5 1011.5 0.2
27/06:30am 9.4 2.7 3.4 66 2.6 NW 28 37 15 20 1011.4 1011.4 0.2
27/06:00am 9.3 3.7 3.3 66 2.6 NNW 22 30 12 16 1011.2 1011.2 0.2
27/05:30am 9.9 2.7 2.9 62 3.0 NW 30 41 16 22 1011.3 1011.3 0.2
27/05:00am 8.8 4.0 2.7 65 2.6 NNW 17 26 9 14 1011.0 1011.0 0.2
27/04:30am 8.3 3.5 2.6 67 2.4 N 17 24 9 13 1011.4 1011.4 0.2
27/04:00am 7.7 2.9 2.7 70 2.1 N 17 28 9 15 1011.8 1011.8 0.2
27/03:30am 7.8 3.5 3.1 72 2.0 NNW 15 20 8 11 1012.2 1012.2 0.2
27/03:00am 9.2 4.1 2.9 65 2.7 NW 19 28 10 15 1012.5 1012.5 0.2
27/02:30am 9.1 4.4 3.0 65 2.6 NNW 17 24 9 13 1012.3 1012.3 0.2
27/02:00am 9.6 3.9 3.1 64 2.8 NNW 22 33 12 18 1011.8 1011.8 0.2
27/01:30am 9.5 3.5 3.3 65 2.7 NNW 24 35 13 19 1011.6 1011.6 0.2
27/01:00am 9.5 2.3 3.0 64 2.8 NNW 30 41 16 22 1012.0 1012.0 0.2
27/12:30am 9.5 3.1 3.3 65 2.7 NNW 26 35 14 19 1012.1 1012.1 0.2
27/12:00am 9.6 4.4 3.4 65 2.7 NNW 20 30 11 16 1012.5 1012.5 0.2
 
Date/Time
EST
Temp
°C
App
Temp
°C
Dew
Point
°C
Rel
Hum
%
Delta-T
°C
Wind Press
QNH
hPa
Press
MSL
hPa
Rain since
9am
mm
Dir  Spd
km/h
Gust
km/h
Spd
kts
Gust
kts
26/11:30pm 9.9 4.2 2.9 62 3.0 NNW 22 33 12 18 1012.7 1012.7 0.2
26/11:00pm 10.3 4.3 3.2 61 3.1 NNW 24 32 13 17 1013.1 1013.1 0.2
26/10:30pm 10.4 3.3 3.3 61 3.1 NW 30 37 16 20 1013.0 1013.0 0.2
26/10:00pm 10.6 3.5 3.3 60 3.2 NW 30 37 16 20 1013.1 1013.1 0.2
26/09:30pm 10.7 4.0 3.7 62 3.1 NW 28 37 15 20 1013.0 1013.0 0.2
26/09:00pm 10.8 4.1 3.8 62 3.1 NNW 28 39 15 21 1012.9 1012.9 0.2
26/08:30pm 11.0 3.9 3.8 61 3.2 NW 30 37 16 20 1012.7 1012.7 0.2
26/08:00pm 11.1 4.4 3.9 61 3.2 NW 28 35 15 19 1012.8 1012.8 0.2
26/07:30pm 11.1 5.6 4.2 62 3.1 NNW 22 32 12 17 1012.8 1012.8 0.2
26/07:00pm 11.5 6.4 4.2 61 3.3 NNW 20 32 11 17 1012.8 1012.8 0.2
26/06:30pm 11.5 5.7 4.2 61 3.3 NNW 24 35 13 19 1012.7 1012.7 0.2
26/06:00pm 11.4 7.3 4.6 63 3.1 NNW 15 20 8 11 1012.5 1012.5 0.2
26/05:30pm 12.1 8.6 3.6 56 3.8 NNW 11 17 6 9 1012.0 1012.0 0.2
26/05:00pm 12.8 7.5 3.1 51 4.3 NW 20 30 11 16 1012.0 1012.0 0.2
26/04:30pm 13.1 7.1 3.5 52 4.3 NW 24 33 13 18 1012.0 1012.0 0.2
26/04:00pm 13.9 6.7 2.9 47 4.9 WNW 30 43 16 23 1011.6 1011.6 0.2
26/03:30pm 14.2 6.3 2.5 45 5.2 WNW 33 44 18 24 1011.4 1011.4 0.2
26/03:00pm 14.5 6.7 2.0 43 5.5 WNW 32 46 17 25 1011.4 1011.4 0.2
26/02:30pm 14.1 6.8 2.3 45 5.2 WNW 30 44 16 24 1011.4 1011.4 0.2
26/02:00pm 14.5 6.5 1.7 42 5.6 W 33 46 18 25 1011.5 1011.5 0.0
26/01:30pm 14.4 6.6 1.8 42 5.5 WNW 32 41 17 22 1011.7 1011.7 0.0
26/01:00pm 13.9 5.2 1.7 43 5.3 WNW 37 50 20 27 1011.9 1011.9 0.0
26/12:30pm 14.2 6.5 2.2 44 5.3 WNW 32 41 17 22 1012.0 1012.0 0.0
26/12:16pm 13.7 6.0 2.3 46 5.0 WNW 32 50 17 27 1012.1 1012.1 0.0

Other Formats:

Comma delimited format used in spreadsheet applications
http://www.bom.gov.au/fwo/IDT60801/IDT60801.94975.axf

JavaScript Object Notation format (JSON) in row-major order
http://www.bom.gov.au/fwo/IDT60801/IDT60801.94975.json